sensor_id;sensor_type;location;lat;lon;timestamp;temperature;humidity
18721;DHT22;9489;50.948;3.114;2023-04-24T00:01:32;9.60;99.90
18721;DHT22;9489;50.948;3.114;2023-04-24T00:03:59;9.50;99.90
18721;DHT22;9489;50.948;3.114;2023-04-24T00:06:27;9.50;99.90
18721;DHT22;9489;50.948;3.114;2023-04-24T00:09:02;9.50;99.90
18721;DHT22;9489;50.948;3.114;2023-04-24T00:11:29;9.40;99.90
18721;DHT22;9489;50.948;3.114;2023-04-24T00:13:56;9.40;99.90
18721;DHT22;9489;50.948;3.114;2023-04-24T00:16:22;9.40;99.90
18721;DHT22;9489;50.948;3.114;2023-04-24T00:18:48;9.40;99.90
18721;DHT22;9489;50.948;3.114;2023-04-24T00:21:15;9.40;99.90
18721;DHT22;9489;50.948;3.114;2023-04-24T00:23:43;9.30;99.90
18721;DHT22;9489;50.948;3.114;2023-04-24T00:26:09;9.30;99.90
18721;DHT22;9489;50.948;3.114;2023-04-24T00:28:35;9.30;99.90
18721;DHT22;9489;50.948;3.114;2023-04-24T00:31:01;9.30;99.90
18721;DHT22;9489;50.948;3.114;2023-04-24T00:33:27;9.30;99.90
18721;DHT22;9489;50.948;3.114;2023-04-24T00:35:52;9.30;99.90
18721;DHT22;9489;50.948;3.114;2023-04-24T00:38:18;9.30;99.90
18721;DHT22;9489;50.948;3.114;2023-04-24T00:40:44;9.30;99.90
18721;DHT22;9489;50.948;3.114;2023-04-24T00:43:10;9.30;99.90
18721;DHT22;9489;50.948;3.114;2023-04-24T00:45:36;9.30;99.90
18721;DHT22;9489;50.948;3.114;2023-04-24T00:48:02;9.30;99.90
18721;DHT22;9489;50.948;3.114;2023-04-24T00:50:28;9.30;99.90
18721;DHT22;9489;50.948;3.114;2023-04-24T00:52:54;9.30;99.90
18721;DHT22;9489;50.948;3.114;2023-04-24T00:55:20;9.30;99.90
18721;DHT22;9489;50.948;3.114;2023-04-24T00:57:46;9.30;99.90
18721;DHT22;9489;50.948;3.114;2023-04-24T01:00:14;9.30;99.90
18721;DHT22;9489;50.948;3.114;2023-04-24T01:02:43;9.30;99.90
18721;DHT22;9489;50.948;3.114;2023-04-24T01:05:13;9.20;99.90
18721;DHT22;9489;50.948;3.114;2023-04-24T01:07:41;9.20;99.90
18721;DHT22;9489;50.948;3.114;2023-04-24T01:10:09;9.20;99.90
18721;DHT22;9489;50.948;3.114;2023-04-24T01:12:35;9.10;99.90
18721;DHT22;9489;50.948;3.114;2023-04-24T01:15:01;9.10;99.90
18721;DHT22;9489;50.948;3.114;2023-04-24T01:17:27;9.10;99.90
18721;DHT22;9489;50.948;3.114;2023-04-24T01:19:52;9.00;99.90
18721;DHT22;9489;50.948;3.114;2023-04-24T01:22:22;9.10;99.90
18721;DHT22;9489;50.948;3.114;2023-04-24T01:24:48;9.10;99.90
18721;DHT22;9489;50.948;3.114;2023-04-24T01:27:14;9.00;99.90
18721;DHT22;9489;50.948;3.114;2023-04-24T01:29:40;9.00;99.90
18721;DHT22;9489;50.948;3.114;2023-04-24T01:32:06;9.00;99.90
18721;DHT22;9489;50.948;3.114;2023-04-24T01:34:33;9.00;99.90
18721;DHT22;9489;50.948;3.114;2023-04-24T01:36:59;9.10;99.90
18721;DHT22;9489;50.948;3.114;2023-04-24T01:39:26;9.10;99.90
18721;DHT22;9489;50.948;3.114;2023-04-24T01:41:54;9.10;99.90
18721;DHT22;9489;50.948;3.114;2023-04-24T01:44:20;9.20;99.90
18721;DHT22;9489;50.948;3.114;2023-04-24T01:46:46;9.20;99.90
18721;DHT22;9489;50.948;3.114;2023-04-24T01:49:12;9.20;99.90
18721;DHT22;9489;50.948;3.114;2023-04-24T01:51:38;9.30;99.90
18721;DHT22;9489;50.948;3.114;2023-04-24T01:54:04;9.30;99.90
18721;DHT22;9489;50.948;3.114;2023-04-24T01:56:33;9.30;99.90
18721;DHT22;9489;50.948;3.114;2023-04-24T01:59:00;9.40;99.90
18721;DHT22;9489;50.948;3.114;2023-04-24T02:01:26;9.40;99.90
18721;DHT22;9489;50.948;3.114;2023-04-24T02:03:51;9.50;99.90
18721;DHT22;9489;50.948;3.114;2023-04-24T02:06:17;9.50;99.90
18721;DHT22;9489;50.948;3.114;2023-04-24T02:08:42;9.50;99.90
18721;DHT22;9489;50.948;3.114;2023-04-24T02:11:09;9.40;99.90
18721;DHT22;9489;50.948;3.114;2023-04-24T02:13:35;9.40;99.90
18721;DHT22;9489;50.948;3.114;2023-04-24T02:16:00;9.40;99.90
18721;DHT22;9489;50.948;3.114;2023-04-24T02:18:26;9.40;99.90
18721;DHT22;9489;50.948;3.114;2023-04-24T02:20:52;9.40;99.90
18721;DHT22;9489;50.948;3.114;2023-04-24T02:23:18;9.40;99.90
18721;DHT22;9489;50.948;3.114;2023-04-24T02:25:44;9.40;99.90
18721;DHT22;9489;50.948;3.114;2023-04-24T02:28:09;9.40;99.90
18721;DHT22;9489;50.948;3.114;2023-04-24T02:30:35;9.40;99.90
18721;DHT22;9489;50.948;3.114;2023-04-24T02:33:00;9.40;99.90
18721;DHT22;9489;50.948;3.114;2023-04-24T02:35:26;9.40;99.90
18721;DHT22;9489;50.948;3.114;2023-04-24T02:37:52;9.40;99.90
18721;DHT22;9489;50.948;3.114;2023-04-24T02:40:17;9.40;99.90
18721;DHT22;9489;50.948;3.114;2023-04-24T02:42:43;9.40;99.90
18721;DHT22;9489;50.948;3.114;2023-04-24T02:45:09;9.30;99.90
18721;DHT22;9489;50.948;3.114;2023-04-24T02:47:35;9.30;99.90
18721;DHT22;9489;50.948;3.114;2023-04-24T02:50:02;9.30;99.90
18721;DHT22;9489;50.948;3.114;2023-04-24T02:52:28;9.30;99.90
18721;DHT22;9489;50.948;3.114;2023-04-24T02:54:54;9.30;99.90
18721;DHT22;9489;50.948;3.114;2023-04-24T02:57:19;9.20;99.90
18721;DHT22;9489;50.948;3.114;2023-04-24T02:59:45;9.20;99.90
18721;DHT22;9489;50.948;3.114;2023-04-24T03:02:10;9.20;99.90
18721;DHT22;9489;50.948;3.114;2023-04-24T03:04:36;9.20;99.90
18721;DHT22;9489;50.948;3.114;2023-04-24T03:07:02;9.20;99.90
18721;DHT22;9489;50.948;3.114;2023-04-24T03:09:27;9.20;99.90
18721;DHT22;9489;50.948;3.114;2023-04-24T03:11:53;9.10;99.90
18721;DHT22;9489;50.948;3.114;2023-04-24T03:14:19;9.10;99.90
18721;DHT22;9489;50.948;3.114;2023-04-24T03:16:44;9.10;99.90
18721;DHT22;9489;50.948;3.114;2023-04-24T03:19:10;9.10;99.90
18721;DHT22;9489;50.948;3.114;2023-04-24T03:21:36;9.10;99.90
18721;DHT22;9489;50.948;3.114;2023-04-24T03:24:09;9.10;99.90
18721;DHT22;9489;50.948;3.114;2023-04-24T03:26:35;9.10;99.90
18721;DHT22;9489;50.948;3.114;2023-04-24T03:29:01;9.10;99.90
18721;DHT22;9489;50.948;3.114;2023-04-24T03:31:26;9.10;99.90
18721;DHT22;9489;50.948;3.114;2023-04-24T03:33:52;9.10;99.90
18721;DHT22;9489;50.948;3.114;2023-04-24T03:36:18;9.00;99.90
18721;DHT22;9489;50.948;3.114;2023-04-24T03:38:44;9.10;99.90
18721;DHT22;9489;50.948;3.114;2023-04-24T03:41:11;9.00;99.90
18721;DHT22;9489;50.948;3.114;2023-04-24T03:43:37;9.10;99.90
18721;DHT22;9489;50.948;3.114;2023-04-24T03:46:03;9.10;99.90
18721;DHT22;9489;50.948;3.114;2023-04-24T03:48:29;9.10;99.90
18721;DHT22;9489;50.948;3.114;2023-04-24T03:50:55;9.10;99.90
18721;DHT22;9489;50.948;3.114;2023-04-24T03:53:21;9.10;99.90
18721;DHT22;9489;50.948;3.114;2023-04-24T03:55:47;9.10;99.90
18721;DHT22;9489;50.948;3.114;2023-04-24T03:58:12;9.10;99.90
18721;DHT22;9489;50.948;3.114;2023-04-24T04:00:41;9.10;99.90
18721;DHT22;9489;50.948;3.114;2023-04-24T04:03:06;9.00;99.90
18721;DHT22;9489;50.948;3.114;2023-04-24T04:05:32;9.00;99.90
18721;DHT22;9489;50.948;3.114;2023-04-24T04:07:58;9.00;99.90
18721;DHT22;9489;50.948;3.114;2023-04-24T04:10:23;9.00;99.90
18721;DHT22;9489;50.948;3.114;2023-04-24T04:12:49;9.00;99.90
18721;DHT22;9489;50.948;3.114;2023-04-24T04:15:15;8.90;99.90
18721;DHT22;9489;50.948;3.114;2023-04-24T04:17:40;8.90;99.90
18721;DHT22;9489;50.948;3.114;2023-04-24T04:20:07;8.90;99.90
18721;DHT22;9489;50.948;3.114;2023-04-24T04:22:38;8.80;99.90
18721;DHT22;9489;50.948;3.114;2023-04-24T04:25:04;8.80;99.90
18721;DHT22;9489;50.948;3.114;2023-04-24T04:27:30;8.80;99.90
18721;DHT22;9489;50.948;3.114;2023-04-24T04:29:58;8.90;99.90
18721;DHT22;9489;50.948;3.114;2023-04-24T04:32:26;8.90;99.90
18721;DHT22;9489;50.948;3.114;2023-04-24T04:34:52;8.90;99.90
18721;DHT22;9489;50.948;3.114;2023-04-24T04:37:18;8.90;99.90
18721;DHT22;9489;50.948;3.114;2023-04-24T04:39:44;8.90;99.90
18721;DHT22;9489;50.948;3.114;2023-04-24T04:42:10;9.00;99.90
18721;DHT22;9489;50.948;3.114;2023-04-24T04:44:36;9.00;99.90
18721;DHT22;9489;50.948;3.114;2023-04-24T04:47:02;9.00;99.90
18721;DHT22;9489;50.948;3.114;2023-04-24T04:49:31;9.00;99.90
18721;DHT22;9489;50.948;3.114;2023-04-24T04:51:56;9.00;99.90
18721;DHT22;9489;50.948;3.114;2023-04-24T04:54:22;9.00;99.90
18721;DHT22;9489;50.948;3.114;2023-04-24T04:56:50;9.00;99.90
18721;DHT22;9489;50.948;3.114;2023-04-24T04:59:16;9.10;99.90
18721;DHT22;9489;50.948;3.114;2023-04-24T05:01:41;9.00;99.90
18721;DHT22;9489;50.948;3.114;2023-04-24T05:04:07;9.00;99.90
18721;DHT22;9489;50.948;3.114;2023-04-24T05:06:33;9.00;99.90
18721;DHT22;9489;50.948;3.114;2023-04-24T05:08:59;9.00;99.90
18721;DHT22;9489;50.948;3.114;2023-04-24T05:11:24;9.00;99.90
18721;DHT22;9489;50.948;3.114;2023-04-24T05:13:50;9.10;99.90
18721;DHT22;9489;50.948;3.114;2023-04-24T05:16:16;9.00;99.90
18721;DHT22;9489;50.948;3.114;2023-04-24T05:18:41;9.10;99.90
18721;DHT22;9489;50.948;3.114;2023-04-24T05:21:07;9.10;99.90
18721;DHT22;9489;50.948;3.114;2023-04-24T05:23:32;9.10;99.90
18721;DHT22;9489;50.948;3.114;2023-04-24T05:25:58;9.10;99.90
18721;DHT22;9489;50.948;3.114;2023-04-24T05:28:24;9.10;99.90
18721;DHT22;9489;50.948;3.114;2023-04-24T05:30:54;9.20;99.90
18721;DHT22;9489;50.948;3.114;2023-04-24T05:33:21;9.20;99.90
18721;DHT22;9489;50.948;3.114;2023-04-24T05:35:48;9.20;99.90
18721;DHT22;9489;50.948;3.114;2023-04-24T05:38:13;9.30;99.90
18721;DHT22;9489;50.948;3.114;2023-04-24T05:40:39;9.20;99.90
18721;DHT22;9489;50.948;3.114;2023-04-24T05:43:05;9.30;99.90
18721;DHT22;9489;50.948;3.114;2023-04-24T05:45:31;9.30;99.90
18721;DHT22;9489;50.948;3.114;2023-04-24T05:47:57;9.30;99.90
18721;DHT22;9489;50.948;3.114;2023-04-24T05:50:22;9.40;99.90
18721;DHT22;9489;50.948;3.114;2023-04-24T05:52:48;9.40;99.90
18721;DHT22;9489;50.948;3.114;2023-04-24T05:55:14;9.40;99.90
18721;DHT22;9489;50.948;3.114;2023-04-24T05:57:42;9.50;99.90
18721;DHT22;9489;50.948;3.114;2023-04-24T06:00:09;9.50;99.90
18721;DHT22;9489;50.948;3.114;2023-04-24T06:02:38;9.60;99.90
18721;DHT22;9489;50.948;3.114;2023-04-24T06:05:04;9.60;99.90
18721;DHT22;9489;50.948;3.114;2023-04-24T06:07:30;9.60;99.90
18721;DHT22;9489;50.948;3.114;2023-04-24T06:09:56;9.70;99.90
18721;DHT22;9489;50.948;3.114;2023-04-24T06:12:22;9.70;99.90
18721;DHT22;9489;50.948;3.114;2023-04-24T06:14:48;9.70;99.90
18721;DHT22;9489;50.948;3.114;2023-04-24T06:17:14;9.70;99.90
18721;DHT22;9489;50.948;3.114;2023-04-24T06:19:40;9.60;99.90
18721;DHT22;9489;50.948;3.114;2023-04-24T06:22:06;9.80;99.90
18721;DHT22;9489;50.948;3.114;2023-04-24T06:24:31;9.90;99.90
18721;DHT22;9489;50.948;3.114;2023-04-24T06:26:57;10.20;99.90
18721;DHT22;9489;50.948;3.114;2023-04-24T06:29:25;10.40;99.90
18721;DHT22;9489;50.948;3.114;2023-04-24T06:31:50;10.50;99.90
18721;DHT22;9489;50.948;3.114;2023-04-24T06:34:16;10.40;99.90
18721;DHT22;9489;50.948;3.114;2023-04-24T06:36:42;10.20;99.90
18721;DHT22;9489;50.948;3.114;2023-04-24T06:39:07;10.20;99.90
18721;DHT22;9489;50.948;3.114;2023-04-24T06:41:33;10.20;99.90
18721;DHT22;9489;50.948;3.114;2023-04-24T06:43:59;10.10;99.90
18721;DHT22;9489;50.948;3.114;2023-04-24T06:46:24;10.00;99.90
18721;DHT22;9489;50.948;3.114;2023-04-24T06:48:52;10.00;99.90
18721;DHT22;9489;50.948;3.114;2023-04-24T06:51:25;10.00;99.90
18721;DHT22;9489;50.948;3.114;2023-04-24T06:53:52;10.10;99.90
18721;DHT22;9489;50.948;3.114;2023-04-24T06:56:18;10.30;99.90
18721;DHT22;9489;50.948;3.114;2023-04-24T06:58:43;10.50;99.90
18721;DHT22;9489;50.948;3.114;2023-04-24T07:01:10;10.40;99.90
18721;DHT22;9489;50.948;3.114;2023-04-24T07:03:36;10.40;99.90
18721;DHT22;9489;50.948;3.114;2023-04-24T07:06:02;10.40;99.90
18721;DHT22;9489;50.948;3.114;2023-04-24T07:08:29;10.30;99.90
18721;DHT22;9489;50.948;3.114;2023-04-24T07:10:56;10.30;99.90
18721;DHT22;9489;50.948;3.114;2023-04-24T07:13:22;10.30;99.90
18721;DHT22;9489;50.948;3.114;2023-04-24T07:15:48;10.50;99.90
18721;DHT22;9489;50.948;3.114;2023-04-24T07:18:20;11.00;99.90
18721;DHT22;9489;50.948;3.114;2023-04-24T07:20:45;11.70;99.90
18721;DHT22;9489;50.948;3.114;2023-04-24T07:23:11;12.10;99.90
18721;DHT22;9489;50.948;3.114;2023-04-24T07:25:37;12.00;99.90
18721;DHT22;9489;50.948;3.114;2023-04-24T07:28:03;11.70;99.90
18721;DHT22;9489;50.948;3.114;2023-04-24T07:30:30;11.40;99.90
18721;DHT22;9489;50.948;3.114;2023-04-24T07:32:58;11.10;99.90
18721;DHT22;9489;50.948;3.114;2023-04-24T07:35:25;10.90;99.90
18721;DHT22;9489;50.948;3.114;2023-04-24T07:37:54;10.70;99.90
18721;DHT22;9489;50.948;3.114;2023-04-24T07:40:20;10.50;99.90
18721;DHT22;9489;50.948;3.114;2023-04-24T07:42:46;10.40;99.90
18721;DHT22;9489;50.948;3.114;2023-04-24T07:45:14;10.70;99.90
18721;DHT22;9489;50.948;3.114;2023-04-24T07:47:41;11.50;99.90
18721;DHT22;9489;50.948;3.114;2023-04-24T07:50:09;12.20;99.90
18721;DHT22;9489;50.948;3.114;2023-04-24T07:52:35;12.80;99.90
18721;DHT22;9489;50.948;3.114;2023-04-24T07:55:01;13.10;99.90
18721;DHT22;9489;50.948;3.114;2023-04-24T07:57:28;13.10;99.90
18721;DHT22;9489;50.948;3.114;2023-04-24T07:59:53;12.80;99.90
18721;DHT22;9489;50.948;3.114;2023-04-24T08:02:19;12.50;99.90
18721;DHT22;9489;50.948;3.114;2023-04-24T08:04:45;12.40;99.90
18721;DHT22;9489;50.948;3.114;2023-04-24T08:07:11;12.40;99.90
18721;DHT22;9489;50.948;3.114;2023-04-24T08:09:38;12.40;99.90
18721;DHT22;9489;50.948;3.114;2023-04-24T08:12:04;12.10;99.90
18721;DHT22;9489;50.948;3.114;2023-04-24T08:14:30;11.80;99.90
18721;DHT22;9489;50.948;3.114;2023-04-24T08:16:55;11.70;99.90
18721;DHT22;9489;50.948;3.114;2023-04-24T08:19:21;11.60;99.90
18721;DHT22;9489;50.948;3.114;2023-04-24T08:21:47;11.40;99.90
18721;DHT22;9489;50.948;3.114;2023-04-24T08:24:13;11.30;99.90
18721;DHT22;9489;50.948;3.114;2023-04-24T08:26:39;11.20;99.90
18721;DHT22;9489;50.948;3.114;2023-04-24T08:29:05;11.10;99.90
18721;DHT22;9489;50.948;3.114;2023-04-24T08:31:32;11.20;99.90
18721;DHT22;9489;50.948;3.114;2023-04-24T08:33:59;11.30;99.90
18721;DHT22;9489;50.948;3.114;2023-04-24T08:36:25;11.40;99.90
18721;DHT22;9489;50.948;3.114;2023-04-24T08:38:51;11.40;99.90
18721;DHT22;9489;50.948;3.114;2023-04-24T08:41:18;11.40;99.90
18721;DHT22;9489;50.948;3.114;2023-04-24T08:43:46;11.40;99.90
18721;DHT22;9489;50.948;3.114;2023-04-24T08:46:13;11.40;99.90
18721;DHT22;9489;50.948;3.114;2023-04-24T08:48:39;11.50;99.90
18721;DHT22;9489;50.948;3.114;2023-04-24T08:51:07;11.50;99.90
18721;DHT22;9489;50.948;3.114;2023-04-24T08:53:34;11.60;99.90
18721;DHT22;9489;50.948;3.114;2023-04-24T08:56:01;11.50;99.90
18721;DHT22;9489;50.948;3.114;2023-04-24T08:58:28;11.50;99.90
18721;DHT22;9489;50.948;3.114;2023-04-24T09:00:54;11.60;99.90
18721;DHT22;9489;50.948;3.114;2023-04-24T09:03:21;11.60;99.90
18721;DHT22;9489;50.948;3.114;2023-04-24T09:05:48;11.70;99.90
18721;DHT22;9489;50.948;3.114;2023-04-24T09:08:16;11.80;99.90
18721;DHT22;9489;50.948;3.114;2023-04-24T09:10:43;11.90;99.90
18721;DHT22;9489;50.948;3.114;2023-04-24T09:13:08;11.90;99.90
18721;DHT22;9489;50.948;3.114;2023-04-24T09:15:36;11.90;99.90
18721;DHT22;9489;50.948;3.114;2023-04-24T09:18:02;11.80;99.90
18721;DHT22;9489;50.948;3.114;2023-04-24T09:20:28;11.70;99.90
18721;DHT22;9489;50.948;3.114;2023-04-24T09:22:54;11.60;99.90
18721;DHT22;9489;50.948;3.114;2023-04-24T09:25:22;11.70;99.90
18721;DHT22;9489;50.948;3.114;2023-04-24T09:27:47;11.90;99.90
18721;DHT22;9489;50.948;3.114;2023-04-24T09:30:14;11.90;99.90
18721;DHT22;9489;50.948;3.114;2023-04-24T09:32:46;12.10;99.90
18721;DHT22;9489;50.948;3.114;2023-04-24T09:35:13;12.00;99.90
18721;DHT22;9489;50.948;3.114;2023-04-24T09:37:41;11.90;99.90
18721;DHT22;9489;50.948;3.114;2023-04-24T09:42:37;11.70;99.90
18721;DHT22;9489;50.948;3.114;2023-04-24T09:45:04;11.70;99.90
18721;DHT22;9489;50.948;3.114;2023-04-24T09:47:39;11.70;99.90
18721;DHT22;9489;50.948;3.114;2023-04-24T09:50:12;11.70;99.90
18721;DHT22;9489;50.948;3.114;2023-04-24T09:52:46;11.60;99.90
18721;DHT22;9489;50.948;3.114;2023-04-24T09:55:18;11.70;99.90
18721;DHT22;9489;50.948;3.114;2023-04-24T09:57:51;11.80;99.90
18721;DHT22;9489;50.948;3.114;2023-04-24T10:00:22;11.90;99.90
18721;DHT22;9489;50.948;3.114;2023-04-24T10:02:58;12.00;99.90
18721;DHT22;9489;50.948;3.114;2023-04-24T10:05:26;12.00;99.90
18721;DHT22;9489;50.948;3.114;2023-04-24T10:07:56;12.00;99.90
18721;DHT22;9489;50.948;3.114;2023-04-24T10:10:22;12.10;99.90
18721;DHT22;9489;50.948;3.114;2023-04-24T10:12:49;12.10;99.90
18721;DHT22;9489;50.948;3.114;2023-04-24T10:15:16;12.20;99.90
18721;DHT22;9489;50.948;3.114;2023-04-24T10:17:48;12.30;99.90
18721;DHT22;9489;50.948;3.114;2023-04-24T10:20:19;12.40;99.90
18721;DHT22;9489;50.948;3.114;2023-04-24T10:22:48;12.50;99.90
18721;DHT22;9489;50.948;3.114;2023-04-24T10:25:17;12.70;99.90
18721;DHT22;9489;50.948;3.114;2023-04-24T10:27:45;13.30;99.90
18721;DHT22;9489;50.948;3.114;2023-04-24T10:30:12;14.00;99.90
18721;DHT22;9489;50.948;3.114;2023-04-24T10:32:38;14.80;99.90
18721;DHT22;9489;50.948;3.114;2023-04-24T10:35:05;15.50;99.90
18721;DHT22;9489;50.948;3.114;2023-04-24T10:37:40;16.10;99.90
18721;DHT22;9489;50.948;3.114;2023-04-24T10:40:09;16.20;99.90
18721;DHT22;9489;50.948;3.114;2023-04-24T10:42:35;16.00;99.90
18721;DHT22;9489;50.948;3.114;2023-04-24T10:45:06;16.40;99.90
18721;DHT22;9489;50.948;3.114;2023-04-24T10:47:41;17.30;99.90
18721;DHT22;9489;50.948;3.114;2023-04-24T10:50:10;17.80;99.90
18721;DHT22;9489;50.948;3.114;2023-04-24T10:52:49;17.60;99.90
18721;DHT22;9489;50.948;3.114;2023-04-24T10:55:41;17.60;99.90
18721;DHT22;9489;50.948;3.114;2023-04-24T10:58:07;17.30;99.90
18721;DHT22;9489;50.948;3.114;2023-04-24T11:00:36;17.10;99.90
18721;DHT22;9489;50.948;3.114;2023-04-24T11:03:05;16.30;99.90
18721;DHT22;9489;50.948;3.114;2023-04-24T11:05:55;16.00;99.90
18721;DHT22;9489;50.948;3.114;2023-04-24T11:08:26;16.10;99.90
18721;DHT22;9489;50.948;3.114;2023-04-24T11:13:23;17.20;99.90
18721;DHT22;9489;50.948;3.114;2023-04-24T11:16:15;17.50;99.90
18721;DHT22;9489;50.948;3.114;2023-04-24T11:18:42;16.90;99.90
18721;DHT22;9489;50.948;3.114;2023-04-24T11:21:16;16.60;99.90
18721;DHT22;9489;50.948;3.114;2023-04-24T11:23:42;16.40;99.90
18721;DHT22;9489;50.948;3.114;2023-04-24T11:26:12;16.60;99.90
18721;DHT22;9489;50.948;3.114;2023-04-24T11:28:48;17.00;99.90
18721;DHT22;9489;50.948;3.114;2023-04-24T11:31:40;18.30;99.90
18721;DHT22;9489;50.948;3.114;2023-04-24T11:34:14;18.80;99.90
18721;DHT22;9489;50.948;3.114;2023-04-24T11:36:46;18.20;99.90
18721;DHT22;9489;50.948;3.114;2023-04-24T11:39:13;18.50;99.90
18721;DHT22;9489;50.948;3.114;2023-04-24T11:41:39;19.10;99.90
18721;DHT22;9489;50.948;3.114;2023-04-24T11:44:07;19.70;99.90
18721;DHT22;9489;50.948;3.114;2023-04-24T11:46:33;19.70;99.90
18721;DHT22;9489;50.948;3.114;2023-04-24T11:48:59;19.60;99.90
18721;DHT22;9489;50.948;3.114;2023-04-24T11:51:26;19.50;99.90
18721;DHT22;9489;50.948;3.114;2023-04-24T11:53:56;20.00;99.90
18721;DHT22;9489;50.948;3.114;2023-04-24T11:56:23;20.30;99.90
18721;DHT22;9489;50.948;3.114;2023-04-24T11:58:52;19.10;99.90
18721;DHT22;9489;50.948;3.114;2023-04-24T12:01:19;19.10;99.90
18721;DHT22;9489;50.948;3.114;2023-04-24T12:03:50;19.80;99.90
18721;DHT22;9489;50.948;3.114;2023-04-24T12:06:17;20.30;99.90
18721;DHT22;9489;50.948;3.114;2023-04-24T12:08:46;20.30;99.90
18721;DHT22;9489;50.948;3.114;2023-04-24T12:11:15;19.80;99.90
18721;DHT22;9489;50.948;3.114;2023-04-24T12:13:41;20.10;99.90
18721;DHT22;9489;50.948;3.114;2023-04-24T12:16:07;20.70;99.90
18721;DHT22;9489;50.948;3.114;2023-04-24T12:18:33;21.00;99.90
18721;DHT22;9489;50.948;3.114;2023-04-24T12:21:18;21.30;99.90
18721;DHT22;9489;50.948;3.114;2023-04-24T12:23:44;19.80;99.90
18721;DHT22;9489;50.948;3.114;2023-04-24T12:26:11;18.90;99.90
18721;DHT22;9489;50.948;3.114;2023-04-24T12:28:38;18.80;99.90
18721;DHT22;9489;50.948;3.114;2023-04-24T12:31:04;18.10;99.90
18721;DHT22;9489;50.948;3.114;2023-04-24T12:33:35;19.10;99.90
18721;DHT22;9489;50.948;3.114;2023-04-24T12:36:01;19.70;99.90
18721;DHT22;9489;50.948;3.114;2023-04-24T12:38:28;19.70;99.90
18721;DHT22;9489;50.948;3.114;2023-04-24T12:41:21;20.10;99.90
18721;DHT22;9489;50.948;3.114;2023-04-24T12:43:51;20.40;99.90
18721;DHT22;9489;50.948;3.114;2023-04-24T12:46:17;20.50;99.90
18721;DHT22;9489;50.948;3.114;2023-04-24T12:48:43;20.50;99.90
18721;DHT22;9489;50.948;3.114;2023-04-24T12:51:09;20.00;99.90
18721;DHT22;9489;50.948;3.114;2023-04-24T12:53:34;19.60;99.90
18721;DHT22;9489;50.948;3.114;2023-04-24T12:56:00;20.40;99.90
18721;DHT22;9489;50.948;3.114;2023-04-24T12:58:26;19.30;99.90
18721;DHT22;9489;50.948;3.114;2023-04-24T13:00:51;18.10;99.90
18721;DHT22;9489;50.948;3.114;2023-04-24T13:03:18;17.40;99.90
18721;DHT22;9489;50.948;3.114;2023-04-24T13:05:43;17.60;99.90
18721;DHT22;9489;50.948;3.114;2023-04-24T13:08:09;17.90;99.90
18721;DHT22;9489;50.948;3.114;2023-04-24T13:10:35;17.80;99.90
18721;DHT22;9489;50.948;3.114;2023-04-24T13:13:01;17.80;99.90
18721;DHT22;9489;50.948;3.114;2023-04-24T13:15:27;17.40;99.90
18721;DHT22;9489;50.948;3.114;2023-04-24T13:17:52;17.40;99.90
18721;DHT22;9489;50.948;3.114;2023-04-24T13:20:18;17.40;99.90
18721;DHT22;9489;50.948;3.114;2023-04-24T13:22:44;17.40;99.90
18721;DHT22;9489;50.948;3.114;2023-04-24T13:25:10;17.60;99.90
18721;DHT22;9489;50.948;3.114;2023-04-24T13:27:37;17.70;99.90
18721;DHT22;9489;50.948;3.114;2023-04-24T13:30:04;17.60;99.90
18721;DHT22;9489;50.948;3.114;2023-04-24T13:32:29;17.80;99.90
18721;DHT22;9489;50.948;3.114;2023-04-24T13:34:56;18.10;99.90
18721;DHT22;9489;50.948;3.114;2023-04-24T13:37:22;18.10;99.90
18721;DHT22;9489;50.948;3.114;2023-04-24T13:39:49;18.10;99.90
18721;DHT22;9489;50.948;3.114;2023-04-24T13:42:14;18.30;99.90
18721;DHT22;9489;50.948;3.114;2023-04-24T13:44:40;18.30;99.90
18721;DHT22;9489;50.948;3.114;2023-04-24T13:47:06;18.00;99.90
18721;DHT22;9489;50.948;3.114;2023-04-24T13:49:31;18.10;99.90
18721;DHT22;9489;50.948;3.114;2023-04-24T13:51:57;18.10;99.90
18721;DHT22;9489;50.948;3.114;2023-04-24T13:54:23;17.80;99.90
18721;DHT22;9489;50.948;3.114;2023-04-24T13:56:51;17.60;99.90
18721;DHT22;9489;50.948;3.114;2023-04-24T13:59:18;17.00;99.90
18721;DHT22;9489;50.948;3.114;2023-04-24T14:01:44;16.60;99.90
18721;DHT22;9489;50.948;3.114;2023-04-24T14:04:10;16.10;99.90
18721;DHT22;9489;50.948;3.114;2023-04-24T14:06:36;15.80;99.90
18721;DHT22;9489;50.948;3.114;2023-04-24T14:09:02;15.60;99.90
18721;DHT22;9489;50.948;3.114;2023-04-24T14:11:28;15.40;99.90
18721;DHT22;9489;50.948;3.114;2023-04-24T14:13:54;15.00;99.90
18721;DHT22;9489;50.948;3.114;2023-04-24T14:16:22;14.60;99.90
18721;DHT22;9489;50.948;3.114;2023-04-24T14:18:47;14.10;99.90
18721;DHT22;9489;50.948;3.114;2023-04-24T14:21:13;14.00;99.90
18721;DHT22;9489;50.948;3.114;2023-04-24T14:23:38;13.90;99.90
18721;DHT22;9489;50.948;3.114;2023-04-24T14:26:04;14.00;99.90
18721;DHT22;9489;50.948;3.114;2023-04-24T14:28:30;13.90;99.90
18721;DHT22;9489;50.948;3.114;2023-04-24T14:30:56;14.00;99.90
18721;DHT22;9489;50.948;3.114;2023-04-24T14:33:22;13.80;99.90
18721;DHT22;9489;50.948;3.114;2023-04-24T14:35:48;13.60;99.90
18721;DHT22;9489;50.948;3.114;2023-04-24T14:38:14;13.60;99.90
18721;DHT22;9489;50.948;3.114;2023-04-24T14:40:40;13.60;99.90
18721;DHT22;9489;50.948;3.114;2023-04-24T14:43:06;13.70;99.90
18721;DHT22;9489;50.948;3.114;2023-04-24T14:45:32;13.80;99.90
18721;DHT22;9489;50.948;3.114;2023-04-24T14:47:58;13.80;99.90
18721;DHT22;9489;50.948;3.114;2023-04-24T14:50:24;13.80;99.90
18721;DHT22;9489;50.948;3.114;2023-04-24T14:52:53;13.70;99.90
18721;DHT22;9489;50.948;3.114;2023-04-24T14:55:20;13.70;99.90
18721;DHT22;9489;50.948;3.114;2023-04-24T14:57:46;13.60;99.90
18721;DHT22;9489;50.948;3.114;2023-04-24T15:00:12;13.70;99.90
18721;DHT22;9489;50.948;3.114;2023-04-24T15:02:38;13.80;99.90
18721;DHT22;9489;50.948;3.114;2023-04-24T15:05:07;13.90;99.90
18721;DHT22;9489;50.948;3.114;2023-04-24T15:07:33;14.10;99.90
18721;DHT22;9489;50.948;3.114;2023-04-24T15:10:00;14.30;99.90
18721;DHT22;9489;50.948;3.114;2023-04-24T15:12:26;14.40;99.90
18721;DHT22;9489;50.948;3.114;2023-04-24T15:14:54;14.40;99.90
18721;DHT22;9489;50.948;3.114;2023-04-24T15:17:19;14.50;99.90
18721;DHT22;9489;50.948;3.114;2023-04-24T15:19:45;14.50;99.90
18721;DHT22;9489;50.948;3.114;2023-04-24T15:22:11;14.50;99.90
18721;DHT22;9489;50.948;3.114;2023-04-24T15:24:36;14.40;99.90
18721;DHT22;9489;50.948;3.114;2023-04-24T15:27:02;14.30;99.90
18721;DHT22;9489;50.948;3.114;2023-04-24T15:29:28;14.10;99.90
18721;DHT22;9489;50.948;3.114;2023-04-24T15:31:54;14.00;99.90
18721;DHT22;9489;50.948;3.114;2023-04-24T15:34:20;13.90;99.90
18721;DHT22;9489;50.948;3.114;2023-04-24T15:36:46;13.60;99.90
18721;DHT22;9489;50.948;3.114;2023-04-24T15:39:12;13.40;99.90
18721;DHT22;9489;50.948;3.114;2023-04-24T15:41:37;13.30;99.90
18721;DHT22;9489;50.948;3.114;2023-04-24T15:44:03;13.30;99.90
18721;DHT22;9489;50.948;3.114;2023-04-24T15:46:29;13.30;99.90
18721;DHT22;9489;50.948;3.114;2023-04-24T15:48:55;13.40;99.90
18721;DHT22;9489;50.948;3.114;2023-04-24T15:51:20;13.40;99.90
18721;DHT22;9489;50.948;3.114;2023-04-24T15:53:46;13.40;99.90
18721;DHT22;9489;50.948;3.114;2023-04-24T15:56:12;13.40;99.90